createdAt,value
2023-03-06T00:02:28.859Z,99468.19
2023-03-06T00:07:25.377Z,99466.69
2023-03-06T00:12:21.811Z,99469.50
2023-03-06T00:17:18.110Z,99458.34
2023-03-06T00:22:15.089Z,99445.03
2023-03-06T00:27:11.695Z,99443.09
2023-03-06T00:32:08.189Z,99438.53
2023-03-06T00:37:04.648Z,99439.72
2023-03-06T00:42:00.992Z,99426.06
2023-03-06T00:46:57.312Z,99425.66
2023-03-06T00:51:53.616Z,99429.75
2023-03-06T00:56:49.936Z,99426.47
2023-03-06T01:01:46.692Z,99416.81
2023-03-06T01:06:43.134Z,99405.97
2023-03-06T01:11:39.650Z,99406.06
2023-03-06T01:16:36.025Z,99398.47
2023-03-06T01:21:32.391Z,99402.59
2023-03-06T01:26:28.785Z,99395.44
2023-03-06T01:31:25.838Z,99382.19
2023-03-06T01:36:22.215Z,99382.06
2023-03-06T01:41:18.690Z,99380.28
2023-03-06T01:46:44.056Z,99365.19
2023-03-06T01:51:53.759Z,99362.13
2023-03-06T01:56:54.038Z,99354.72
2023-03-06T02:01:51.058Z,99348.81
2023-03-06T02:06:47.782Z,99340.75
2023-03-06T02:11:45.420Z,99341.66
2023-03-06T02:16:43.318Z,99337.25
2023-03-06T02:21:39.749Z,99321.59
2023-03-06T02:26:37.446Z,99331.63
2023-03-06T02:31:35.685Z,99334.91
2023-03-06T02:36:35.096Z,99331.44
2023-03-06T02:41:31.500Z,99318.25
2023-03-06T02:46:28.449Z,99309.41
2023-03-06T02:51:25.149Z,99299.78
2023-03-06T02:56:22.029Z,99300.63
2023-03-06T03:01:18.437Z,99294.38
2023-03-06T03:06:14.991Z,99300.44
2023-03-06T03:11:12.180Z,99284.53
2023-03-06T03:16:11.646Z,99284.63
2023-03-06T03:21:11.180Z,99286.38
2023-03-06T03:26:13.852Z,99263.72
2023-03-06T03:31:11.587Z,99252.78
2023-03-06T03:36:08.364Z,99253.41
2023-03-06T03:41:05.016Z,99251.72
2023-03-06T03:46:01.383Z,99245.56
2023-03-06T03:51:12.304Z,99242.75
2023-03-06T03:56:08.626Z,99228.88
2023-03-06T04:01:05.599Z,99234.50
2023-03-06T04:06:01.940Z,99237.66
2023-03-06T04:10:58.253Z,99229.59
2023-03-06T04:15:55.882Z,99228.66
2023-03-06T04:20:52.512Z,99221.72
2023-03-06T04:25:48.871Z,99222.91
2023-03-06T04:30:45.213Z,99221.53
2023-03-06T04:35:41.657Z,99227.88
2023-03-06T04:40:37.992Z,99226.56
2023-03-06T04:45:35.349Z,99221.13
2023-03-06T04:50:58.171Z,99227.69
2023-03-06T04:55:56.130Z,99216.16
2023-03-06T05:00:52.485Z,99222.06
2023-03-06T05:05:48.828Z,99220.22
2023-03-06T05:10:45.849Z,99219.19
2023-03-06T05:15:42.274Z,99219.00
2023-03-06T05:20:38.646Z,99207.50
2023-03-06T05:25:34.985Z,99213.41
2023-03-06T05:30:31.324Z,99205.63
2023-03-06T05:35:28.052Z,99199.72
2023-03-06T05:40:25.221Z,99192.25
2023-03-06T05:45:21.823Z,99192.31
2023-03-06T05:50:18.251Z,99187.47
2023-03-06T05:55:15.491Z,99192.50
2023-03-06T06:00:13.710Z,99187.06
2023-03-06T06:05:12.878Z,99189.50
2023-03-06T06:10:11.312Z,99186.72
2023-03-06T06:15:08.081Z,99188.41
2023-03-06T06:20:04.880Z,99188.31
2023-03-06T06:25:01.231Z,99188.22
2023-03-06T06:29:57.604Z,99183.91
2023-03-06T06:34:54.250Z,99190.16
2023-03-06T06:39:50.562Z,99183.53
2023-03-06T06:44:48.514Z,99173.97
2023-03-06T06:49:46.441Z,99175.47
2023-03-06T06:54:42.811Z,99175.59
2023-03-06T06:59:39.241Z,99176.53
2023-03-06T07:04:35.588Z,99180.66
2023-03-06T07:09:31.911Z,99173.63
2023-03-06T07:14:28.269Z,99174.38
2023-03-06T07:19:24.859Z,99175.88
2023-03-06T07:24:21.201Z,99164.91
2023-03-06T07:29:17.599Z,99168.19
2023-03-06T07:34:14.876Z,99162.00
2023-03-06T07:39:11.249Z,99164.25
2023-03-06T07:44:07.580Z,99169.03
2023-03-06T07:49:04.323Z,99168.09
2023-03-06T07:54:00.650Z,99160.44
2023-03-06T07:58:57.251Z,99156.41
2023-03-06T08:03:53.788Z,99157.91
2023-03-06T08:08:51.803Z,99163.59
2023-03-06T08:13:48.807Z,99173.06
2023-03-06T08:18:46.589Z,99171.94
2023-03-06T08:23:44.407Z,99171.72
2023-03-06T08:28:41.133Z,99172.78
2023-03-06T08:33:38.823Z,99177.56
2023-03-06T08:38:35.252Z,99186.72
2023-03-06T08:43:31.775Z,99192.72
2023-03-06T08:48:30.071Z,99193.63
2023-03-06T08:53:42.183Z,99201.81
2023-03-06T08:58:42.044Z,99196.94
2023-03-06T09:03:41.544Z,99211.09
2023-03-06T09:08:46.655Z,99209.00
2023-03-06T09:13:43.803Z,99205.25
2023-03-06T09:18:40.754Z,99197.59
2023-03-06T09:23:39.488Z,99202.84
2023-03-06T09:28:38.880Z,99206.38
2023-03-06T09:33:35.343Z,99218.28
2023-03-06T09:38:47.124Z,99214.63
2023-03-06T09:44:01.768Z,99216.50
2023-03-06T09:49:36.346Z,99214.09
2023-03-06T09:54:47.622Z,99219.31
2023-03-06T09:59:47.466Z,99228.13
2023-03-06T10:04:49.099Z,99215.47
2023-03-06T10:09:52.165Z,99223.66
2023-03-06T10:15:23.127Z,99217.44
2023-03-06T10:20:22.729Z,99212.28
2023-03-06T10:25:39.733Z,99215.75
2023-03-06T10:31:22.149Z,99211.09
2023-03-06T10:36:34.005Z,99197.56
2023-03-06T10:41:46.002Z,99188.53
2023-03-06T10:46:45.891Z,99182.91
2023-03-06T10:52:20.583Z,99184.75
2023-03-06T10:57:20.592Z,99185.44
2023-03-06T11:02:38.554Z,99184.34
2023-03-06T11:07:36.203Z,99196.66
2023-03-06T11:12:35.301Z,99188.88
2023-03-06T11:17:32.225Z,99194.19
2023-03-06T11:22:28.619Z,99193.91
2023-03-06T11:27:34.833Z,99190.34
2023-03-06T11:32:45.172Z,99179.41
2023-03-06T11:37:58.260Z,99179.09
2023-03-06T11:43:12.940Z,99172.97
2023-03-06T11:48:15.351Z,99168.78
2023-03-06T11:53:21.858Z,99169.75
2023-03-06T11:58:51.949Z,99170.59
2023-03-06T12:04:12.375Z,99179.75
2023-03-06T12:09:14.542Z,99187.94
2023-03-06T12:14:27.447Z,99184.63
2023-03-06T12:19:33.179Z,99192.84
2023-03-06T12:24:32.312Z,99183.06
2023-03-06T12:29:46.485Z,99178.88
2023-03-06T12:34:54.622Z,99170.81
2023-03-06T12:40:06.622Z,99168.50
2023-03-06T12:45:18.576Z,99168.06
2023-03-06T12:50:23.956Z,99164.53
2023-03-06T12:55:24.918Z,99154.22
2023-03-06T13:01:04.403Z,99153.66
2023-03-06T13:06:24.902Z,99153.09
2023-03-06T13:11:27.796Z,99148.28
2023-03-06T13:16:34.796Z,99143.84
2023-03-06T13:21:46.616Z,99139.53
2023-03-06T13:26:42.961Z,99137.91
2023-03-06T13:31:40.023Z,99142.06
2023-03-06T13:36:39.572Z,99140.72
2023-03-06T13:41:43.364Z,99131.28
2023-03-06T13:46:41.261Z,99125.28
2023-03-06T13:51:48.715Z,99122.53
2023-03-06T13:57:16.209Z,99111.63
2023-03-06T14:02:33.818Z,99111.06
2023-03-06T14:07:39.976Z,99107.44
2023-03-06T14:12:41.404Z,99101.81
2023-03-06T14:17:39.140Z,99098.44
2023-03-06T14:22:35.527Z,99095.44
2023-03-06T14:27:44.103Z,99087.25
2023-03-06T14:32:41.277Z,99082.38
2023-03-06T14:37:38.105Z,99083.75
2023-03-06T14:42:34.628Z,99076.25
2023-03-06T14:47:36.098Z,99091.69
2023-03-06T14:52:32.921Z,99083.28
2023-03-06T14:57:29.331Z,99086.47
2023-03-06T15:02:29.912Z,99076.63
2023-03-06T15:07:30.650Z,99073.56
2023-03-06T15:12:27.189Z,99074.06
2023-03-06T15:17:27.408Z,99061.50
2023-03-06T15:22:37.810Z,99067.94
2023-03-06T15:27:34.307Z,99058.59
2023-03-06T15:32:33.686Z,99057.47
2023-03-06T15:37:30.216Z,99071.09
2023-03-06T15:42:27.973Z,99072.34
2023-03-06T15:47:24.661Z,99063.41
2023-03-06T15:52:22.308Z,99059.28
2023-03-06T15:57:25.271Z,99059.06
2023-03-06T16:02:23.233Z,99055.81
2023-03-06T16:07:20.582Z,99054.41
2023-03-06T16:12:19.710Z,99042.63
2023-03-06T16:17:17.202Z,99036.66
2023-03-06T16:22:13.894Z,99033.41
2023-03-06T16:27:18.480Z,99034.13
2023-03-06T16:32:14.940Z,99025.59
2023-03-06T16:37:13.244Z,99030.69
2023-03-06T16:42:09.710Z,99028.81
2023-03-06T16:47:06.258Z,99016.81
2023-03-06T16:52:04.522Z,99016.41
2023-03-06T16:57:00.853Z,99012.41
2023-03-06T17:01:57.467Z,99014.72
2023-03-06T17:06:53.805Z,99002.44
2023-03-06T17:11:50.157Z,98998.94
2023-03-06T17:16:46.562Z,99001.94
2023-03-06T17:21:43.620Z,99001.03
2023-03-06T17:26:40.200Z,99010.16
2023-03-06T17:31:36.593Z,99005.66
2023-03-06T17:36:33.361Z,99003.53
2023-03-06T17:41:29.926Z,99001.03
2023-03-06T17:46:26.481Z,99002.50
2023-03-06T17:51:23.411Z,98996.53
2023-03-06T17:56:19.943Z,98993.59
2023-03-06T18:01:19.341Z,98995.59
2023-03-06T18:06:17.289Z,98985.69
2023-03-06T18:11:14.107Z,98987.88
2023-03-06T18:16:14.224Z,98978.63
2023-03-06T18:21:13.621Z,98977.88
2023-03-06T18:26:13.163Z,98976.31
2023-03-06T18:31:17.685Z,98976.66
2023-03-06T18:36:14.392Z,98971.91
2023-03-06T18:41:11.578Z,98966.16
2023-03-06T18:46:08.451Z,98965.91
2023-03-06T18:51:06.752Z,98958.63
2023-03-06T18:56:03.707Z,98960.19
2023-03-06T19:01:06.070Z,98954.44
2023-03-06T19:06:07.966Z,98958.00
2023-03-06T19:11:07.097Z,98946.28
2023-03-06T19:16:04.408Z,98941.25
2023-03-06T19:21:15.748Z,98940.59
2023-03-06T19:26:12.538Z,98939.38
2023-03-06T19:31:10.240Z,98932.22
2023-03-06T19:36:09.123Z,98936.34
2023-03-06T19:41:06.458Z,98927.84
2023-03-06T19:46:03.670Z,98925.22
2023-03-06T19:51:04.234Z,98919.97
2023-03-06T19:56:09.306Z,98909.69
2023-03-06T20:01:08.249Z,98904.00
2023-03-06T20:06:08.893Z,98893.28
2023-03-06T20:11:05.415Z,98884.78
2023-03-06T20:16:02.983Z,98876.34
2023-03-06T20:21:00.862Z,98863.31
2023-03-06T20:26:01.454Z,98854.19
2023-03-06T20:30:58.272Z,98854.50
2023-03-06T20:35:54.670Z,98846.72
2023-03-06T20:40:54.750Z,98842.75
2023-03-06T20:46:02.701Z,98838.22
2023-03-06T20:51:03.968Z,98829.94
2023-03-06T20:56:01.145Z,98826.47
2023-03-06T21:00:59.533Z,98816.59
2023-03-06T21:05:57.214Z,98821.75
2023-03-06T21:10:53.560Z,98817.66
2023-03-06T21:15:49.944Z,98810.84
2023-03-06T21:20:46.313Z,98796.44
2023-03-06T21:25:50.541Z,98787.84
2023-03-06T21:30:46.902Z,98768.00
2023-03-06T21:35:44.799Z,98765.69
2023-03-06T21:40:41.498Z,98755.81
2023-03-06T21:45:37.885Z,98744.47
2023-03-06T21:50:35.146Z,98729.56
2023-03-06T21:55:31.486Z,98727.66
2023-03-06T22:00:27.825Z,98717.16
2023-03-06T22:05:24.914Z,98717.34
2023-03-06T22:10:21.669Z,98698.84
2023-03-06T22:15:18.182Z,98691.78
2023-03-06T22:20:15.347Z,98669.00
2023-03-06T22:25:12.020Z,98661.88
2023-03-06T22:30:09.259Z,98644.00
2023-03-06T22:35:06.191Z,98644.94
2023-03-06T22:40:02.556Z,98639.69
2023-03-06T22:44:58.862Z,98635.59
2023-03-06T22:49:55.197Z,98619.63
2023-03-06T22:54:51.521Z,98619.72
2023-03-06T22:59:47.881Z,98611.03
2023-03-06T23:04:44.289Z,98591.66
2023-03-06T23:09:40.727Z,98583.44
2023-03-06T23:14:37.247Z,98575.47
2023-03-06T23:19:33.599Z,98560.66
2023-03-06T23:24:30.006Z,98551.34
2023-03-06T23:29:26.352Z,98547.78
2023-03-06T23:34:23.615Z,98540.34
2023-03-06T23:39:19.992Z,98534.63
2023-03-06T23:44:16.391Z,98528.63
2023-03-06T23:49:12.790Z,98528.25
2023-03-06T23:54:10.075Z,98528.03
2023-03-06T23:59:06.395Z,98524.56
